Time;durP1;ratioP1;P1;durP2;ratioP2;P2;SDS_P1;SDS_P2;PMS_P1;PMS_P2;Temp;Humidity;BMP_temperature;BMP_pressure;BME280_temperature;BME280_humidity;BME280_pressure;Samples;Min_cycle;Max_cycle;Signal;HPM_P1;HPM_P2
2024/01/01 00:00:50;;;;;;;8.35;2.80;;;;;;;;;;5262367;28;20108;-75
2024/01/01 00:03:21;;;;;;;9.68;3.35;;;;;;;;;;5261551;28;20013;-76
2024/01/01 00:05:52;;;;;;;7.85;3.10;;;;;;;;;;5262590;28;20365;-77
2024/01/01 00:08:23;;;;;;;6.78;1.10;;;;;;;;;;5261765;28;20025;-77
2024/01/01 00:10:54;;;;;;;5.68;0.60;;;;;;;;;;5261781;28;20480;-77
2024/01/01 00:13:26;;;;;;;5.13;0.57;;;;;;;;;;5261795;28;20379;-77
2024/01/01 00:15:57;;;;;;;4.22;0.43;;;;;;;;;;5262005;28;20017;-78
2024/01/01 00:18:28;;;;;;;3.63;0.45;;;;;;;;;;5261372;28;20468;-77
2024/01/01 00:21:00;;;;;;;3.67;0.30;;;;;;;;;;5261539;28;20021;-76
2024/01/01 00:23:31;;;;;;;3.13;0.57;;;;;;;;;;5261649;28;20043;-76
2024/01/01 00:26:03;;;;;;;4.10;1.13;;;;;;;;;;5260573;28;20032;-77
2024/01/01 00:28:35;;;;;;;7.50;3.28;;;;;;;;;;5261753;28;20051;-77
2024/01/01 00:31:06;;;;;;;7.97;3.97;;;;;;;;;;5262048;28;20033;-77
2024/01/01 00:33:37;;;;;;;6.90;1.45;;;;;;;;;;5261050;28;20021;-76
2024/01/01 00:36:08;;;;;;;6.15;2.17;;;;;;;;;;5262050;28;20353;-76
2024/01/01 00:38:39;;;;;;;5.32;1.10;;;;;;;;;;5260585;28;20060;-77
2024/01/01 00:41:15;;;;;;;35.50;19.00;;;;;;;;;;5261046;28;20407;-76
2024/01/01 00:43:47;;;;;;;16.08;8.77;;;;;;;;;;5261580;28;20023;-77
2024/01/01 00:46:19;;;;;;;12.40;8.00;;;;;;;;;;5260897;28;20070;-77
2024/01/01 00:48:50;;;;;;;7.90;3.08;;;;;;;;;;5261839;28;20468;-77
2024/01/01 00:51:22;;;;;;;16.98;11.32;;;;;;;;;;5261079;28;20028;-76
2024/01/01 00:53:53;;;;;;;5.03;1.45;;;;;;;;;;5261065;28;20052;-77
2024/01/01 00:56:24;;;;;;;13.02;5.78;;;;;;;;;;5261036;28;20048;-77
2024/01/01 00:58:55;;;;;;;10.00;5.90;;;;;;;;;;5261664;28;20029;-76
2024/01/01 01:01:26;;;;;;;6.75;3.22;;;;;;;;;;5259907;28;20023;-76
2024/01/01 01:03:57;;;;;;;6.00;2.70;;;;;;;;;;5261371;28;20420;-78
2024/01/01 01:06:29;;;;;;;7.63;2.78;;;;;;;;;;5261382;28;20371;-77
2024/01/01 01:09:00;;;;;;;15.78;10.24;;;;;;;;;;5260614;28;20017;-78
2024/01/01 01:11:31;;;;;;;12.82;7.35;;;;;;;;;;5261108;28;20032;-77
2024/01/01 01:14:03;;;;;;;7.28;3.38;;;;;;;;;;5260408;28;20023;-77
2024/01/01 01:16:34;;;;;;;5.00;1.80;;;;;;;;;;5260864;28;20017;-77
2024/01/01 01:19:05;;;;;;;5.38;2.28;;;;;;;;;;5260802;28;20460;-77
2024/01/01 01:21:37;;;;;;;22.70;10.90;;;;;;;;;;5260044;28;20402;-77
2024/01/01 01:24:08;;;;;;;4.97;2.10;;;;;;;;;;5260873;28;20471;-77
2024/01/01 01:26:39;;;;;;;4.68;1.27;;;;;;;;;;5261011;28;20474;-77
2024/01/01 01:29:11;;;;;;;4.34;1.42;;;;;;;;;;5260129;28;20049;-77
2024/01/01 01:31:42;;;;;;;2.90;0.68;;;;;;;;;;5260987;28;20048;-77
2024/01/01 01:34:13;;;;;;;3.70;0.70;;;;;;;;;;5260562;28;20044;-77
2024/01/01 01:36:44;;;;;;;5.42;1.18;;;;;;;;;;5259672;28;20062;-79
2024/01/01 01:39:15;;;;;;;3.83;0.60;;;;;;;;;;5260596;28;20107;-78
2024/01/01 01:41:47;;;;;;;4.55;0.90;;;;;;;;;;5260096;28;20472;-78
2024/01/01 01:44:18;;;;;;;5.22;1.45;;;;;;;;;;5260571;28;20482;-78
2024/01/01 01:46:49;;;;;;;5.55;1.58;;;;;;;;;;5261153;28;20029;-78
2024/01/01 01:49:20;;;;;;;4.60;1.10;;;;;;;;;;5260250;28;20013;-77
2024/01/01 01:51:52;;;;;;;3.60;0.70;;;;;;;;;;5260420;28;20036;-77
2024/01/01 01:54:23;;;;;;;6.32;0.70;;;;;;;;;;5260063;28;20100;-77
2024/01/01 01:56:54;;;;;;;4.30;0.70;;;;;;;;;;5260112;28;20028;-77
2024/01/01 01:59:25;;;;;;;7.35;0.95;;;;;;;;;;5260331;28;20021;-77
2024/01/01 02:01:57;;;;;;;5.15;1.00;;;;;;;;;;5260481;28;20044;-77
2024/01/01 02:04:28;;;;;;;5.15;1.45;;;;;;;;;;5259654;28;20075;-77
2024/01/01 02:07:00;;;;;;;7.55;0.90;;;;;;;;;;5260245;28;20083;-77
2024/01/01 02:09:31;;;;;;;7.47;0.80;;;;;;;;;;5260525;28;20017;-76
2024/01/01 02:12:02;;;;;;;9.27;0.80;;;;;;;;;;5259785;28;20032;-75
2024/01/01 02:14:34;;;;;;;4.78;0.80;;;;;;;;;;5260265;28;20028;-77
2024/01/01 02:17:05;;;;;;;4.50;0.50;;;;;;;;;;5259569;28;20100;-75
2024/01/01 02:19:36;;;;;;;6.88;0.70;;;;;;;;;;5260321;28;20036;-76
2024/01/01 02:22:08;;;;;;;7.90;1.00;;;;;;;;;;5260319;28;20025;-77
2024/01/01 02:24:39;;;;;;;6.05;0.63;;;;;;;;;;5259792;28;20475;-77
2024/01/01 02:27:10;;;;;;;7.05;1.08;;;;;;;;;;5260330;28;20033;-76
2024/01/01 02:29:41;;;;;;;6.32;0.93;;;;;;;;;;5260002;28;20120;-76
2024/01/01 02:32:12;;;;;;;6.97;1.02;;;;;;;;;;5259268;28;20029;-75
2024/01/01 02:34:43;;;;;;;7.68;0.50;;;;;;;;;;5260076;28;20082;-76
2024/01/01 02:37:15;;;;;;;6.35;0.88;;;;;;;;;;5260333;28;20380;-76
2024/01/01 02:39:46;;;;;;;8.30;1.17;;;;;;;;;;5259852;28;20366;-76
2024/01/01 02:42:17;;;;;;;9.93;1.00;;;;;;;;;;5260321;28;20044;-77
2024/01/01 02:44:48;;;;;;;4.63;1.00;;;;;;;;;;5260192;28;20021;-77
2024/01/01 02:47:19;;;;;;;7.55;0.80;;;;;;;;;;5259352;28;20025;-77
2024/01/01 02:49:51;;;;;;;7.30;0.60;;;;;;;;;;5260161;28;20017;-77
2024/01/01 02:52:22;;;;;;;7.53;0.98;;;;;;;;;;5258994;28;20021;-78
2024/01/01 02:54:53;;;;;;;5.54;0.70;;;;;;;;;;5260245;28;20098;-78
2024/01/01 02:57:27;;;;;;;7.90;1.23;;;;;;;;;;5259548;28;20028;-78
2024/01/01 02:59:58;;;;;;;4.80;0.60;;;;;;;;;;5259059;28;20020;-78
2024/01/01 03:02:29;;;;;;;7.93;0.82;;;;;;;;;;5260323;28;20033;-78
2024/01/01 03:05:01;;;;;;;7.72;0.70;;;;;;;;;;5263750;28;20036;-78
2024/01/01 03:07:32;;;;;;;6.70;0.90;;;;;;;;;;5262908;28;20083;-78
2024/01/01 03:10:04;;;;;;;5.18;0.60;;;;;;;;;;5263728;28;20025;-78
2024/01/01 03:12:36;;;;;;;10.50;1.38;;;;;;;;;;5263610;28;20005;-79
2024/01/01 03:15:07;;;;;;;9.95;1.77;;;;;;;;;;5262377;28;20037;-78
2024/01/01 03:17:38;;;;;;;9.38;0.75;;;;;;;;;;5263346;28;20028;-77
2024/01/01 03:20:10;;;;;;;10.02;1.40;;;;;;;;;;5263221;28;20017;-78
2024/01/01 03:22:42;;;;;;;8.23;0.85;;;;;;;;;;5262289;28;20036;-77
2024/01/01 03:25:13;;;;;;;6.68;0.70;;;;;;;;;;5263271;28;20419;-78
2024/01/01 03:27:44;;;;;;;8.80;0.68;;;;;;;;;;5262165;28;20094;-78
2024/01/01 03:30:16;;;;;;;10.55;0.90;;;;;;;;;;5262455;28;20051;-77
2024/01/01 03:32:49;;;;;;;7.93;0.52;;;;;;;;;;5262981;28;20103;-78
2024/01/01 03:35:21;;;;;;;8.05;1.25;;;;;;;;;;5261920;28;20063;-77
2024/01/01 03:37:52;;;;;;;10.13;1.33;;;;;;;;;;5263021;28;20419;-77
2024/01/01 03:40:23;;;;;;;12.40;1.15;;;;;;;;;;5262619;28;20108;-77
2024/01/01 03:42:54;;;;;;;6.47;0.80;;;;;;;;;;5262342;28;20028;-77
2024/01/01 03:45:25;;;;;;;6.18;0.70;;;;;;;;;;5262517;28;20472;-78
2024/01/01 03:47:57;;;;;;;10.75;0.93;;;;;;;;;;5263154;28;20057;-77
2024/01/01 03:50:28;;;;;;;6.32;0.60;;;;;;;;;;5261987;28;20075;-78
2024/01/01 03:52:59;;;;;;;5.07;0.50;;;;;;;;;;5262689;28;20032;-77
2024/01/01 03:55:31;;;;;;;9.43;1.42;;;;;;;;;;5261798;28;20013;-78
2024/01/01 03:58:02;;;;;;;9.35;0.90;;;;;;;;;;5262430;28;20105;-77
2024/01/01 04:00:33;;;;;;;6.38;0.70;;;;;;;;;;5262488;28;20013;-77
2024/01/01 04:03:05;;;;;;;7.22;1.00;;;;;;;;;;5261665;28;20021;-77
2024/01/01 04:05:36;;;;;;;10.25;0.90;;;;;;;;;;5262260;28;20104;-77
2024/01/01 04:08:07;;;;;;;4.45;0.60;;;;;;;;;;5262468;28;20079;-76
2024/01/01 04:10:38;;;;;;;6.75;0.57;;;;;;;;;;5261522;28;20112;-77
2024/01/01 04:13:09;;;;;;;7.22;0.65;;;;;;;;;;5262274;28;20017;-77
2024/01/01 04:15:40;;;;;;;7.68;0.88;;;;;;;;;;5262180;28;20120;-77
2024/01/01 04:18:12;;;;;;;6.97;0.60;;;;;;;;;;5261097;28;20021;-78
2024/01/01 04:20:43;;;;;;;4.97;0.40;;;;;;;;;;5262024;28;20468;-78
2024/01/01 04:23:14;;;;;;;8.18;0.50;;;;;;;;;;5262074;28;20021;-77
2024/01/01 04:25:45;;;;;;;5.80;0.50;;;;;;;;;;5261372;28;20076;-77
2024/01/01 04:28:16;;;;;;;5.38;0.55;;;;;;;;;;5262082;28;20096;-78
2024/01/01 04:30:47;;;;;;;7.35;0.68;;;;;;;;;;5260968;28;20187;-78
2024/01/01 04:33:20;;;;;;;5.78;0.73;;;;;;;;;;5262058;28;20017;-78
2024/01/01 04:35:52;;;;;;;8.50;0.93;;;;;;;;;;5262062;28;20025;-78
2024/01/01 04:38:23;;;;;;;4.72;0.60;;;;;;;;;;5260905;28;20017;-78
2024/01/01 04:40:54;;;;;;;6.25;0.85;;;;;;;;;;5262196;28;20528;-77
2024/01/01 04:43:26;;;;;;;2.66;0.40;;;;;;;;;;5261571;28;20060;-78
2024/01/01 04:45:57;;;;;;;7.00;0.80;;;;;;;;;;5260772;28;20013;-79
2024/01/01 04:48:28;;;;;;;7.28;0.93;;;;;;;;;;5261010;28;20032;-79
2024/01/01 04:51:00;;;;;;;7.97;0.90;;;;;;;;;;5261211;28;20475;-79
2024/01/01 04:53:31;;;;;;;6.85;0.95;;;;;;;;;;5259296;28;20541;-79
2024/01/01 04:56:03;;;;;;;9.18;0.60;;;;;;;;;;5261174;28;20070;-77
2024/01/01 04:58:34;;;;;;;8.75;0.95;;;;;;;;;;5261571;28;20099;-77
2024/01/01 05:01:05;;;;;;;5.85;0.70;;;;;;;;;;5260373;28;20120;-77
2024/01/01 05:03:36;;;;;;;7.88;1.10;;;;;;;;;;5261090;28;20013;-77
2024/01/01 05:06:08;;;;;;;4.88;0.57;;;;;;;;;;5260377;28;20422;-77
2024/01/01 05:08:39;;;;;;;4.78;0.50;;;;;;;;;;5261487;28;20039;-79
2024/01/01 05:11:10;;;;;;;5.78;0.50;;;;;;;;;;5260994;28;20029;-77
2024/01/01 05:13:41;;;;;;;4.57;0.60;;;;;;;;;;5260309;28;20017;-77
2024/01/01 05:16:13;;;;;;;5.22;0.70;;;;;;;;;;5261129;28;20028;-78
2024/01/01 05:18:44;;;;;;;6.22;0.70;;;;;;;;;;5260909;28;20005;-78
2024/01/01 05:21:15;;;;;;;4.75;0.40;;;;;;;;;;5260525;28;20063;-78
2024/01/01 05:23:46;;;;;;;7.93;0.55;;;;;;;;;;5261040;28;20017;-78
2024/01/01 05:26:17;;;;;;;4.47;0.40;;;;;;;;;;5260490;28;20049;-79
2024/01/01 05:28:48;;;;;;;4.75;0.45;;;;;;;;;;5259786;28;20033;-77
2024/01/01 05:31:22;;;;;;;4.68;0.43;;;;;;;;;;5260544;28;20029;-77
2024/01/01 05:33:54;;;;;;;6.40;0.63;;;;;;;;;;5260175;28;20013;-78
2024/01/01 05:36:25;;;;;;;6.47;0.60;;;;;;;;;;5260421;28;20058;-78
2024/01/01 05:38:56;;;;;;;4.82;0.55;;;;;;;;;;5260457;28;20027;-77
2024/01/01 05:41:27;;;;;;;4.72;0.75;;;;;;;;;;5259682;28;20482;-78
2024/01/01 05:43:58;;;;;;;6.35;0.55;;;;;;;;;;5260593;28;20036;-77
2024/01/01 05:46:31;;;;;;;7.28;0.60;;;;;;;;;;5260396;28;20075;-78
2024/01/01 05:49:02;;;;;;;6.88;1.10;;;;;;;;;;5259721;28;20053;-78
2024/01/01 05:51:33;;;;;;;4.85;0.60;;;;;;;;;;5260502;28;20151;-78
2024/01/01 05:54:04;;;;;;;6.04;0.94;;;;;;;;;;5260589;28;20021;-77
2024/01/01 05:56:36;;;;;;;8.82;0.55;;;;;;;;;;5260288;28;20017;-78
2024/01/01 05:59:07;;;;;;;5.78;0.50;;;;;;;;;;5260855;28;20014;-78
2024/01/01 06:01:38;;;;;;;4.90;0.50;;;;;;;;;;5260726;28;20020;-78
2024/01/01 06:04:09;;;;;;;5.05;0.43;;;;;;;;;;5259994;28;20067;-78
2024/01/01 06:06:40;;;;;;;5.20;0.60;;;;;;;;;;5260592;28;20025;-78
2024/01/01 06:09:11;;;;;;;7.60;0.50;;;;;;;;;;5260129;28;20115;-78
2024/01/01 06:11:43;;;;;;;4.10;0.63;;;;;;;;;;5260328;28;20376;-78
2024/01/01 06:14:14;;;;;;;3.35;0.40;;;;;;;;;;5260503;28;20079;-78
2024/01/01 06:16:45;;;;;;;6.70;0.52;;;;;;;;;;5259440;28;20017;-78
2024/01/01 06:19:17;;;;;;;4.80;0.40;;;;;;;;;;5260195;28;20021;-78
2024/01/01 06:21:48;;;;;;;4.72;0.40;;;;;;;;;;5260349;28;20048;-78
2024/01/01 06:24:19;;;;;;;5.78;0.60;;;;;;;;;;5259400;28;20112;-78
2024/01/01 06:26:50;;;;;;;8.43;0.60;;;;;;;;;;5260325;28;20456;-78
2024/01/01 06:29:23;;;;;;;8.60;1.20;;;;;;;;;;5259731;28;20072;-78
2024/01/01 06:31:55;;;;;;;5.53;0.52;;;;;;;;;;5259867;28;20110;-78
2024/01/01 06:34:26;;;;;;;7.38;0.70;;;;;;;;;;5259930;28;20059;-77
2024/01/01 06:36:57;;;;;;;5.50;0.40;;;;;;;;;;5259690;28;20082;-78
2024/01/01 06:39:28;;;;;;;5.18;0.55;;;;;;;;;;5263181;28;20468;-77
2024/01/01 06:42:00;;;;;;;4.96;0.54;;;;;;;;;;5263805;28;20028;-77
2024/01/01 06:44:31;;;;;;;9.95;0.77;;;;;;;;;;5263122;28;20029;-77
2024/01/01 06:47:03;;;;;;;9.00;0.80;;;;;;;;;;5263656;28;20403;-77
2024/01/01 06:49:34;;;;;;;6.97;0.70;;;;;;;;;;5263957;28;20472;-77
2024/01/01 06:52:06;;;;;;;8.63;0.93;;;;;;;;;;5262941;28;20044;-78
2024/01/01 06:54:38;;;;;;;6.07;0.40;;;;;;;;;;5263860;28;20021;-77
2024/01/01 06:57:09;;;;;;;7.00;0.65;;;;;;;;;;5264167;28;20447;-77
2024/01/01 06:59:40;;;;;;;6.57;0.88;;;;;;;;;;5263071;28;20029;-78
2024/01/01 07:02:11;;;;;;;8.00;0.60;;;;;;;;;;5263699;28;20074;-78
2024/01/01 07:04:42;;;;;;;5.38;0.65;;;;;;;;;;5263589;28;20017;-77
2024/01/01 07:07:14;;;;;;;6.55;0.82;;;;;;;;;;5262774;28;20033;-78
2024/01/01 07:09:46;;;;;;;6.22;0.60;;;;;;;;;;5263834;28;20027;-78
2024/01/01 07:12:18;;;;;;;7.28;0.75;;;;;;;;;;5263707;28;20033;-78
2024/01/01 07:14:49;;;;;;;4.82;0.60;;;;;;;;;;5263244;28;20100;-77
2024/01/01 07:17:21;;;;;;;7.28;0.63;;;;;;;;;;5263190;28;20096;-78
2024/01/01 07:19:52;;;;;;;8.65;0.60;;;;;;;;;;5264045;28;20021;-77
2024/01/01 07:22:23;;;;;;;5.15;0.60;;;;;;;;;;5263240;28;20110;-77
2024/01/01 07:24:55;;;;;;;5.57;0.47;;;;;;;;;;5263428;28;20108;-77
2024/01/01 07:27:27;;;;;;;4.88;0.60;;;;;;;;;;5262495;28;20059;-77
2024/01/01 07:29:58;;;;;;;5.05;1.10;;;;;;;;;;5263083;28;20068;-77
2024/01/01 07:32:30;;;;;;;4.40;0.57;;;;;;;;;;5263248;28;20025;-77
2024/01/01 07:35:01;;;;;;;5.00;0.60;;;;;;;;;;5262397;28;20047;-76
2024/01/01 07:37:32;;;;;;;3.80;0.82;;;;;;;;;;5263688;28;20063;-77
2024/01/01 07:40:04;;;;;;;8.50;0.68;;;;;;;;;;5263324;28;20021;-77
2024/01/01 07:42:35;;;;;;;4.53;1.00;;;;;;;;;;5262455;28;20413;-77
2024/01/01 07:45:07;;;;;;;7.78;0.70;;;;;;;;;;5263138;28;20025;-76
2024/01/01 07:47:38;;;;;;;6.80;0.38;;;;;;;;;;5262127;28;20041;-76
2024/01/01 07:50:09;;;;;;;6.05;1.02;;;;;;;;;;5262370;28;20043;-77
2024/01/01 07:52:40;;;;;;;5.43;0.50;;;;;;;;;;5262888;28;20040;-76
2024/01/01 07:55:12;;;;;;;5.18;0.70;;;;;;;;;;5262427;28;20013;-77
2024/01/01 07:57:46;;;;;;;4.18;0.40;;;;;;;;;;5262737;28;20029;-77
2024/01/01 08:00:18;;;;;;;4.50;0.65;;;;;;;;;;5262787;28;20032;-76
2024/01/01 08:02:49;;;;;;;6.18;0.60;;;;;;;;;;5261804;28;20384;-76
2024/01/01 08:05:20;;;;;;;4.80;0.40;;;;;;;;;;5262313;28;20013;-77
2024/01/01 08:07:51;;;;;;;3.80;0.80;;;;;;;;;;5262684;28;20405;-76
2024/01/01 08:10:22;;;;;;;6.93;0.60;;;;;;;;;;5260538;28;20041;-77
2024/01/01 08:12:54;;;;;;;4.85;0.90;;;;;;;;;;5262793;28;20021;-77
2024/01/01 08:15:25;;;;;;;5.30;0.60;;;;;;;;;;5261965;28;20032;-77
2024/01/01 08:17:56;;;;;;;6.15;0.45;;;;;;;;;;5261720;28;20503;-79
2024/01/01 08:20:29;;;;;;;6.32;0.52;;;;;;;;;;5262006;28;20025;-79
2024/01/01 08:23:00;;;;;;;4.45;0.40;;;;;;;;;;5261539;28;20025;-78
2024/01/01 08:25:31;;;;;;;5.88;0.50;;;;;;;;;;5251793;28;20371;-76
2024/01/01 08:28:02;;;;;;;7.63;0.60;;;;;;;;;;5252177;28;20367;-76
2024/01/01 08:30:34;;;;;;;4.55;0.50;;;;;;;;;;5260711;28;20048;-76
2024/01/01 08:33:05;;;;;;;4.35;0.50;;;;;;;;;;5249908;28;20025;-77
2024/01/01 08:35:36;;;;;;;6.65;0.60;;;;;;;;;;5241278;28;20045;-77
2024/01/01 08:38:08;;;;;;;8.98;1.25;;;;;;;;;;5240973;28;20040;-77
2024/01/01 08:40:39;;;;;;;8.07;0.75;;;;;;;;;;5261851;28;20020;-77
2024/01/01 08:43:10;;;;;;;6.50;0.93;;;;;;;;;;5261576;28;20021;-77
2024/01/01 08:45:41;;;;;;;6.18;0.60;;;;;;;;;;5261041;28;20024;-77
2024/01/01 08:48:12;;;;;;;4.97;0.50;;;;;;;;;;5261856;28;20025;-77
2024/01/01 08:50:43;;;;;;;6.05;0.75;;;;;;;;;;5261263;28;20029;-78
2024/01/01 08:53:15;;;;;;;10.48;1.27;;;;;;;;;;5260419;28;20016;-78
2024/01/01 08:55:47;;;;;;;6.45;0.75;;;;;;;;;;5261639;28;20025;-79
2024/01/01 08:58:18;;;;;;;5.50;0.88;;;;;;;;;;5260653;28;20032;-79
2024/01/01 09:00:49;;;;;;;6.68;0.70;;;;;;;;;;5260488;28;20016;-78
2024/01/01 09:03:20;;;;;;;5.82;0.50;;;;;;;;;;5261083;28;20114;-79
2024/01/01 09:05:53;;;;;;;4.35;0.68;;;;;;;;;;5260665;28;20043;-79
2024/01/01 09:08:24;;;;;;;4.80;0.60;;;;;;;;;;5259830;28;20476;-78
2024/01/01 09:10:56;;;;;;;4.57;0.50;;;;;;;;;;5261680;28;20037;-80
2024/01/01 09:13:27;;;;;;;6.53;0.82;;;;;;;;;;5260216;28;20032;-79
2024/01/01 09:15:58;;;;;;;6.18;0.60;;;;;;;;;;5261247;28;20032;-78
2024/01/01 09:18:30;;;;;;;4.90;0.50;;;;;;;;;;5261062;28;20028;-79
2024/01/01 09:21:01;;;;;;;6.88;0.95;;;;;;;;;;5260477;28;20132;-80
2024/01/01 09:23:33;;;;;;;5.78;0.82;;;;;;;;;;5256683;28;20052;-78
2024/01/01 09:26:04;;;;;;;7.32;0.80;;;;;;;;;;5259995;28;20464;-78
2024/01/01 09:28:35;;;;;;;5.90;0.50;;;;;;;;;;5260550;28;20024;-78
2024/01/01 09:31:06;;;;;;;4.35;0.70;;;;;;;;;;5260569;28;20032;-75
2024/01/01 09:33:39;;;;;;;5.10;0.50;;;;;;;;;;5258964;28;20025;-77
2024/01/01 09:36:13;;;;;;;8.27;0.70;;;;;;;;;;5258766;28;20064;-77
2024/01/01 09:38:44;;;;;;;5.90;0.60;;;;;;;;;;5260377;28;20483;-78
2024/01/01 09:41:15;;;;;;;5.93;0.60;;;;;;;;;;5259476;28;20037;-77
2024/01/01 09:43:47;;;;;;;7.13;0.63;;;;;;;;;;5260845;28;20017;-76
2024/01/01 09:46:18;;;;;;;10.48;1.00;;;;;;;;;;5260479;28;20044;-74
2024/01/01 09:48:49;;;;;;;4.20;0.50;;;;;;;;;;5259877;28;20025;-73
2024/01/01 09:51:20;;;;;;;7.10;0.70;;;;;;;;;;5260371;28;20029;-74
2024/01/01 09:53:52;;;;;;;5.47;0.50;;;;;;;;;;5260727;28;20063;-75
2024/01/01 09:56:23;;;;;;;4.00;0.40;;;;;;;;;;5259767;28;20025;-75
2024/01/01 09:58:57;;;;;;;6.53;0.55;;;;;;;;;;5261143;28;20060;-76
2024/01/01 10:01:31;;;;;;;6.78;0.60;;;;;;;;;;5259883;28;20691;-72
2024/01/01 10:04:04;;;;;;;5.25;0.55;;;;;;;;;;5260071;28;20013;-77
2024/01/01 10:06:36;;;;;;;5.28;1.05;;;;;;;;;;5260511;28;20029;-75
2024/01/01 10:09:10;;;;;;;5.15;0.60;;;;;;;;;;5259799;28;20020;-74
2024/01/01 10:11:42;;;;;;;7.75;1.00;;;;;;;;;;5261090;28;20120;-75
2024/01/01 10:14:13;;;;;;;5.18;0.73;;;;;;;;;;5264720;28;20096;-76
2024/01/01 10:16:45;;;;;;;9.10;0.95;;;;;;;;;;5263886;28;20055;-78
2024/01/01 10:19:16;;;;;;;8.63;0.60;;;;;;;;;;5264769;28;20017;-76
2024/01/01 10:21:47;;;;;;;6.47;0.77;;;;;;;;;;5264279;28;20028;-77
2024/01/01 10:24:21;;;;;;;4.75;0.40;;;;;;;;;;5263970;28;20383;-78
2024/01/01 10:26:52;;;;;;;4.18;0.70;;;;;;;;;;5264612;28;20085;-77
2024/01/01 10:29:24;;;;;;;3.90;1.02;;;;;;;;;;5258316;28;20095;-76
2024/01/01 10:31:56;;;;;;;7.18;0.73;;;;;;;;;;5243812;28;20117;-75
2024/01/01 10:34:29;;;;;;;6.75;0.60;;;;;;;;;;5252547;28;20092;-76
2024/01/01 10:37:00;;;;;;;4.95;0.70;;;;;;;;;;5262933;28;20049;-74
2024/01/01 10:39:33;;;;;;;6.90;0.70;;;;;;;;;;5262380;28;20048;-78
2024/01/01 10:42:05;;;;;;;6.93;0.93;;;;;;;;;;5262551;28;20017;-76
2024/01/01 10:44:36;;;;;;;7.60;0.70;;;;;;;;;;5262016;28;20104;-77
2024/01/01 10:47:09;;;;;;;6.97;0.95;;;;;;;;;;5263913;28;20095;-77
2024/01/01 10:49:44;;;;;;;7.10;0.85;;;;;;;;;;5264247;28;20031;-78
2024/01/01 10:52:16;;;;;;;8.05;0.50;;;;;;;;;;5263101;28;20114;-77
2024/01/01 10:54:47;;;;;;;8.02;0.98;;;;;;;;;;5264092;28;20447;-75
2024/01/01 10:57:37;;;;;;;10.77;0.90;;;;;;;;;;5263913;28;20059;-77
2024/01/01 11:00:25;;;;;;;10.15;1.52;;;;;;;;;;5263906;28;20037;-77
2024/01/01 11:02:56;;;;;;;9.23;0.60;;;;;;;;;;5264451;28;20487;-77
2024/01/01 11:05:34;;;;;;;9.77;1.25;;;;;;;;;;5263063;28;20021;-77
2024/01/01 11:08:05;;;;;;;9.70;1.08;;;;;;;;;;5263868;28;20040;-76
2024/01/01 11:10:44;;;;;;;7.25;1.20;;;;;;;;;;5263597;28;20110;-77
2024/01/01 11:13:15;;;;;;;;;;;;;;;;;;5263635;28;20029;-76
2024/01/01 11:15:46;;;;;;;10.20;0.70;;;;;;;;;;5263621;28;19905;-76
2024/01/01 11:18:18;;;;;;;10.40;1.10;;;;;;;;;;5263471;28;20045;-77
2024/01/01 11:20:52;;;;;;;8.15;0.93;;;;;;;;;;5262718;28;20021;-75
2024/01/01 11:23:50;;;;;;;8.48;1.08;;;;;;;;;;5262132;28;20151;-77
2024/01/01 11:26:34;;;;;;;7.57;1.27;;;;;;;;;;5261015;28;20032;-72
2024/01/01 11:29:24;;;;;;;10.02;1.02;;;;;;;;;;5263201;28;20049;-78
2024/01/01 11:32:02;;;;;;;10.10;0.77;;;;;;;;;;5263617;28;20422;-78
2024/01/01 11:34:35;;;;;;;12.23;1.52;;;;;;;;;;5261619;28;20039;-78
2024/01/01 11:37:07;;;;;;;11.38;1.35;;;;;;;;;;5262544;28;20097;-78
2024/01/01 11:39:38;;;;;;;8.77;0.98;;;;;;;;;;5262215;28;20099;-78
2024/01/01 11:42:09;;;;;;;15.70;1.10;;;;;;;;;;5262685;28;20538;-78
2024/01/01 11:44:40;;;;;;;10.95;1.55;;;;;;;;;;5263398;28;20519;-78
2024/01/01 11:47:16;;;;;;;9.07;1.42;;;;;;;;;;5262313;28;20032;-77
2024/01/01 11:49:53;;;;;;;9.80;1.38;;;;;;;;;;5263267;28;20476;-78
2024/01/01 11:52:25;;;;;;;9.80;0.90;;;;;;;;;;5262422;28;20055;-77
2024/01/01 11:54:56;;;;;;;12.32;1.20;;;;;;;;;;5262659;28;20017;-77
2024/01/01 11:57:27;;;;;;;9.60;0.93;;;;;;;;;;5262880;28;20028;-78
2024/01/01 11:59:59;;;;;;;9.95;1.15;;;;;;;;;;5263727;28;20028;-78
2024/01/01 12:02:31;;;;;;;9.82;1.35;;;;;;;;;;5262651;28;20060;-78
2024/01/01 12:05:04;;;;;;;6.78;1.05;;;;;;;;;;5262782;28;20021;-78
2024/01/01 12:07:35;;;;;;;10.60;0.98;;;;;;;;;;5262496;28;20491;-78
2024/01/01 12:10:08;;;;;;;10.52;1.35;;;;;;;;;;5261769;28;20021;-78
2024/01/01 12:12:40;;;;;;;9.52;1.45;;;;;;;;;;5262710;28;20009;-77
2024/01/01 12:15:16;;;;;;;10.90;1.10;;;;;;;;;;5261547;28;20013;-78
2024/01/01 12:17:51;;;;;;;13.07;1.88;;;;;;;;;;5262698;28;20025;-78
2024/01/01 12:20:22;;;;;;;11.25;1.20;;;;;;;;;;5261995;28;20017;-78
2024/01/01 12:23:10;;;;;;;12.90;1.65;;;;;;;;;;5261977;28;20023;-77
2024/01/01 12:25:41;;;;;;;8.32;1.20;;;;;;;;;;5262109;28;20418;-78
2024/01/01 12:28:16;;;;;;;10.85;1.67;;;;;;;;;;5262287;28;20021;-78
2024/01/01 12:30:47;;;;;;;10.10;1.13;;;;;;;;;;5261245;28;20053;-78
2024/01/01 12:33:19;;;;;;;8.13;1.02;;;;;;;;;;5262370;28;20063;-78
2024/01/01 12:35:50;;;;;;;8.70;1.25;;;;;;;;;;5262097;28;20028;-78
2024/01/01 12:38:21;;;;;;;11.27;1.55;;;;;;;;;;5260634;28;20021;-77
2024/01/01 12:40:52;;;;;;;11.65;1.10;;;;;;;;;;5262369;28;20029;-79
2024/01/01 12:43:24;;;;;;;10.93;1.30;;;;;;;;;;5260833;28;20013;-80
2024/01/01 12:45:55;;;;;;;7.63;1.15;;;;;;;;;;5262616;28;20021;-78
2024/01/01 12:48:30;;;;;;;15.07;4.00;;;;;;;;;;5261639;28;20024;-79
2024/01/01 12:51:01;;;;;;;13.73;1.98;;;;;;;;;;5260937;28;20056;-78
2024/01/01 12:53:32;;;;;;;14.85;2.75;;;;;;;;;;5261858;28;20040;-79
2024/01/01 12:56:04;;;;;;;12.18;2.85;;;;;;;;;;5261643;28;20029;-78
2024/01/01 12:58:37;;;;;;;19.50;2.83;;;;;;;;;;5260601;28;20028;-78
2024/01/01 13:01:12;;;;;;;14.82;1.85;;;;;;;;;;5261345;28;20476;-80
2024/01/01 13:03:44;;;;;;;15.95;2.42;;;;;;;;;;5261400;28;20029;-78
2024/01/01 13:06:18;;;;;;;13.13;2.30;;;;;;;;;;5260745;28;20017;-79
2024/01/01 13:08:50;;;;;;;12.75;2.20;;;;;;;;;;5261299;28;20017;-80
2024/01/01 13:11:21;;;;;;;14.48;2.17;;;;;;;;;;5260279;28;20483;-79
2024/01/01 13:13:52;;;;;;;14.93;3.20;;;;;;;;;;5261124;28;20025;-77
2024/01/01 13:16:23;;;;;;;11.55;1.80;;;;;;;;;;5260722;28;20028;-76
2024/01/01 13:18:54;;;;;;;12.73;1.75;;;;;;;;;;5260574;28;20013;-77
2024/01/01 13:21:28;;;;;;;12.22;1.30;;;;;;;;;;5260872;28;20029;-75
2024/01/01 13:24:00;;;;;;;15.55;1.75;;;;;;;;;;5261085;28;20090;-76
2024/01/01 13:26:32;;;;;;;11.35;1.58;;;;;;;;;;5260186;28;20024;-75
2024/01/01 13:29:04;;;;;;;11.52;2.17;;;;;;;;;;5261105;28;20033;-77
2024/01/01 13:31:35;;;;;;;12.48;1.48;;;;;;;;;;5260770;28;20098;-77
2024/01/01 13:34:06;;;;;;;15.44;2.06;;;;;;;;;;5260067;28;20360;-77
2024/01/01 13:36:37;;;;;;;12.27;1.65;;;;;;;;;;5260189;28;20424;-76
2024/01/01 13:39:08;;;;;;;16.77;2.70;;;;;;;;;;5260665;28;20017;-75
2024/01/01 13:41:39;;;;;;;14.45;1.70;;;;;;;;;;5260168;28;20040;-76
2024/01/01 13:44:11;;;;;;;20.10;3.10;;;;;;;;;;5260896;28;20021;-75
2024/01/01 13:46:42;;;;;;;12.52;1.40;;;;;;;;;;5259629;28;20055;-76
2024/01/01 13:49:13;;;;;;;15.48;2.25;;;;;;;;;;5260599;28;20104;-75
2024/01/01 13:51:44;;;;;;;16.40;2.70;;;;;;;;;;5260707;28;20029;-76
2024/01/01 13:54:15;;;;;;;8.98;1.83;;;;;;;;;;5259809;28;20017;-77
2024/01/01 13:56:46;;;;;;;11.50;2.45;;;;;;;;;;5260756;28;20112;-77
2024/01/01 13:59:18;;;;;;;11.48;1.90;;;;;;;;;;5261132;28;20502;-78
2024/01/01 14:01:49;;;;;;;13.27;1.90;;;;;;;;;;5259622;28;20021;-78
2024/01/01 14:04:20;;;;;;;11.43;2.42;;;;;;;;;;5260662;28;20115;-77
2024/01/01 14:06:51;;;;;;;12.95;2.03;;;;;;;;;;5260785;28;20013;-78
2024/01/01 14:09:23;;;;;;;12.93;2.13;;;;;;;;;;5259543;28;20433;-78
2024/01/01 14:11:54;;;;;;;18.27;3.10;;;;;;;;;;5260138;28;20033;-78
2024/01/01 14:14:25;;;;;;;13.32;2.40;;;;;;;;;;5259491;28;20044;-79
2024/01/01 14:16:56;;;;;;;19.58;3.03;;;;;;;;;;5260558;28;20021;-79
2024/01/01 14:19:27;;;;;;;12.20;2.17;;;;;;;;;;5260433;28;20103;-77
2024/01/01 14:21:58;;;;;;;9.48;1.80;;;;;;;;;;5259482;28;20027;-81
2024/01/01 14:24:30;;;;;;;16.00;2.15;;;;;;;;;;5260113;28;20464;-78
2024/01/01 14:27:06;;;;;;;15.90;1.83;;;;;;;;;;5260447;28;20450;-77
2024/01/01 14:29:38;;;;;;;10.82;1.70;;;;;;;;;;5259450;28;20081;-77
2024/01/01 14:32:10;;;;;;;12.88;2.38;;;;;;;;;;5260230;28;20134;-78
2024/01/01 14:34:41;;;;;;;12.00;1.83;;;;;;;;;;5260024;28;20056;-78
2024/01/01 14:37:13;;;;;;;12.05;1.58;;;;;;;;;;5259374;28;20033;-78
2024/01/01 14:39:44;;;;;;;13.38;2.15;;;;;;;;;;5260447;28;20485;-78
2024/01/01 14:42:15;;;;;;;13.52;1.67;;;;;;;;;;5260374;28;20048;-77
2024/01/01 14:44:46;;;;;;;10.18;1.38;;;;;;;;;;5259450;28;20036;-77
2024/01/01 14:47:17;;;;;;;11.85;1.75;;;;;;;;;;5260112;28;20048;-77
2024/01/01 14:49:49;;;;;;;12.18;1.30;;;;;;;;;;5259164;28;20284;-78
2024/01/01 14:52:20;;;;;;;16.35;2.60;;;;;;;;;;5259885;28;20147;-78
2024/01/01 14:54:51;;;;;;;15.02;1.83;;;;;;;;;;5260243;28;20053;-78
2024/01/01 14:57:23;;;;;;;12.80;1.50;;;;;;;;;;5258786;28;20090;-77
2024/01/01 14:59:54;;;;;;;12.70;1.95;;;;;;;;;;5262722;28;20017;-78
2024/01/01 15:02:25;;;;;;;11.48;1.23;;;;;;;;;;5263678;28;20486;-78
2024/01/01 15:04:57;;;;;;;12.65;1.40;;;;;;;;;;5262997;28;20033;-78
2024/01/01 15:07:28;;;;;;;14.82;1.60;;;;;;;;;;5263702;28;20100;-77